Detall de PIREP

Printer-friendly versionPDF version

[2013/12/01 07:12:00]
Flight IATA:CT2110
Pilot Number:041
Company ICAO:CAT
Aircraft Type:C172/A
PAX:2
Departing Airport: LEVC
Destination Airport: LEST
Alternate Airport:LEMD
Online: VATSIM
Route:CENTA A33 PRADO A33 CJN A33 HORTA A33 MAGIN A33 INDEG A33 DISKO A33 ZMR A33 BARKO A33 FORNO
Flight Level:FL090
No Slew and time accel
No pause
Crash detect
Detect pilot in Cockpit between each 30 and 45 minutes
07:12 Zero fuel Weight: 2010 Lbs, Fuel Weight: 335 Lbs
07:12 VATSIM:LEVC 010630Z 02009KT 350V060 9999 FEW030 BKN060 11/M01 Q1016 NOSIG
07:12 VATSIM:LEST 010630Z 05009KT 020V090 CAVOK 06/01 Q1024 NOSIG
07:12 VOICE CATALONIAN
07:15 Parking Brakes off
07:20 Take-off
07:20 Take off Weight: 2344 Lbs
07:20 Wind: 023º @ 008 Knots Heading: 295º
07:20 POS N39º 29´ 11´´ W000º 28´ 28´´
07:20 Flaps:1 at 74 Knots
07:20 Flaps:2 at 67 Knots
07:20 Flaps:1 at 67 Knots
07:20 Flaps:0 at 66 Knots
07:35 Wind:071º@033 Knots Heading: 311º Ground Speed: 123 Knots Altitude 8015 ft
07:37 TOC
07:37 Fuel Weight: 317 Lb
07:50 Wind:071º@033 Knots Heading: 312º Ground Speed: 128 Knots Altitude 9199 ft
08:05 Wind:057º@031 Knots Heading: 313º Ground Speed: 121 Knots Altitude 9215 ft
08:20 Wind:053º@042 Knots Heading: 316º Ground Speed: 124 Knots Altitude 9189 ft
08:35 Wind:053º@042 Knots Heading: 318º Ground Speed: 110 Knots Altitude 9166 ft
08:50 Wind:060º@036 Knots Heading: 311º Ground Speed: 128 Knots Altitude 9219 ft
09:05 Wind:065º@021 Knots Heading: 305º Ground Speed: 094 Knots Altitude 9274 ft
09:20 Wind:065º@021 Knots Heading: 304º Ground Speed: 127 Knots Altitude 9294 ft
09:35 Wind:077º@043 Knots Heading: 320º Ground Speed: 146 Knots Altitude 9288 ft
09:50 Wind:091º@020 Knots Heading: 310º Ground Speed: 123 Knots Altitude 9317 ft
10:05 Wind:091º@020 Knots Heading: 310º Ground Speed: 128 Knots Altitude 9317 ft
10:12 TOD
10:12 Fuel Weight: 200 Lb
10:20 Wind:090º@024 Knots Heading: 306º Ground Speed: 134 Knots Altitude 6000 ft
10:35 Wind:067º@021 Knots Heading: 307º Ground Speed: 127 Knots Altitude 4557 ft
10:50 Wind:069º@006 Knots Heading: 080º Ground Speed: 101 Knots Altitude 4091 ft
10:52 Flaps:1 at 84 Knots
10:53 Flaps:2 at 72 Knots
10:55 Flaps:3 at 72 Knots
10:57 TouchDown:Rate -59 ft/min Speed: 57 Knots
10:57 Flaps:0 at 51 Knots
10:57 VATSIM:LEST 011030Z 07006KT 020V100 CAVOK 09/02 Q1025 NOSIG
10:57 Land
10:57 Wind:069º@005 Knots
10:57 Heading: 348º
10:57 Flight Duration: 03:37
10:57 Landing Weight: 2180 Lbs
10:57 POS N42º 53´ 31´´ W008º 24´ 49´´
10:59 Parking brakes on
10:59 Block to Block Duration: 03:44
10:59 Final Fuel: 169 Lbls
10:59 Spent Fuel: 165 Lbls
10:59 Flight Length: 440 NM
10:59 TOD Land Length: 86 NM

Exportar CSV

Powered by Drupal - Modified by Danger4k